Main page
METAR-TAF:

METAR-TAF

Airports :

Cayenne – Félix Eboué Airport

Cayenne, French Guiana

latitude: 04-50N, longitude: 052-22W, elevation: 105 m

Current weather observation

The report was made 33 minutes ago, at 19:00 UTC
Wind 7 kt from the North/Northeast, varying between North/Northwest and East/Northeast
Temperature 32°C
Humidity 63%
Pressure 1010 hPa
Visibility 10 km or more
no clouds below 1500 m and no cumulonimbus

METAR: SOCA 191900Z AUTO 02007KT 330V070 CAVOK 32/24 Q1010 NOSIG

Time: 16:33 (19:33 UTC)

Forecast

The report was made 3 hours and 33 minutes ago, at 16:00 UTC
Forecast valid from 19 at 18 UTC to 20 at 18 UTC
Wind 10 kt from the East/Northeast
Visibility 10 km or more
Few clouds at a height of 3000 ft
Becoming
from 19 at 22 UTC to 19 at 23 UTC
Wind 3 kt from variable directions
Becoming
from 20 at 14 UTC to 20 at 16 UTC
Wind 10 kt from the East

TAF: SOCA 191600Z 1918/2018 07010KT 9999 FEW030 BECMG 1922/1923 VRB03KT BECMG 2014/2016 10010KT

Weather observations and forecasts of more than 4000 airports (METAR and TAF reports).

The available stations are represented by yellow and red dots on the map.

Hover mouse over dot to see the name of the station.

Then click to see weather observations and forecasts.

To change the map : click on the green buttons with a black cross to zoom in, on the green button with a dash to zoom out, or on the green arrows for adjacent maps.


METAR-TAF: